Time;durP1;ratioP1;P1;durP2;ratioP2;P2;SDS_P1;SDS_P2;PMS_P1;PMS_P2;Temp;Humidity;BMP_temperature;BMP_pressure;BME280_temperature;BME280_humidity;BME280_pressure;Samples;Min_cycle;Max_cycle;Signal;HPM_P1;HPM_P2
2022/03/07 00:02:27;;;;;;;5.13;4.55;;;1.20;99.90;;;;;;4966362;28;20314;-61
2022/03/07 00:04:58;;;;;;;4.93;4.53;;;1.10;99.90;;;;;;4962442;28;20203;-60
2022/03/07 00:07:26;;;;;;;5.20;4.82;;;1.00;99.90;;;;;;4957212;28;20239;-61
2022/03/07 00:09:54;;;;;;;5.15;4.75;;;1.00;99.90;;;;;;4963720;28;20234;-60
2022/03/07 00:12:22;;;;;;;4.88;4.57;;;1.00;99.90;;;;;;4965094;28;20326;-61
2022/03/07 00:14:49;;;;;;;4.90;4.50;;;0.90;99.90;;;;;;4960983;28;20235;-61
2022/03/07 00:17:19;;;;;;;5.10;4.55;;;0.90;99.90;;;;;;4957223;28;20302;-61
2022/03/07 00:19:47;;;;;;;5.38;4.88;;;1.00;99.90;;;;;;4961819;28;20623;-61
2022/03/07 00:22:14;;;;;;;4.70;4.40;;;0.90;99.90;;;;;;4956324;28;20263;-61
2022/03/07 00:24:42;;;;;;;5.28;4.88;;;0.80;99.90;;;;;;4959323;28;20234;-61
2022/03/07 00:27:10;;;;;;;5.00;4.60;;;0.80;99.90;;;;;;4962806;28;20286;-61
2022/03/07 00:29:38;;;;;;;3.92;3.63;;;0.80;99.90;;;;;;4958832;28;20715;-61
2022/03/07 00:32:07;;;;;;;4.97;4.43;;;0.80;99.90;;;;;;4956451;28;20278;-61
2022/03/07 00:34:36;;;;;;;4.95;4.55;;;0.70;99.90;;;;;;4958676;28;20223;-61
2022/03/07 00:37:06;;;;;;;4.57;4.28;;;0.70;99.90;;;;;;4956585;28;20218;-60
2022/03/07 00:39:34;;;;;;;4.65;4.25;;;0.60;99.90;;;;;;4965713;28;20672;-62
2022/03/07 00:42:02;;;;;;;4.30;4.00;;;0.50;99.90;;;;;;4957851;28;20259;-61
2022/03/07 00:44:30;;;;;;;4.40;4.00;;;0.50;99.90;;;;;;4956996;28;20286;-61
2022/03/07 00:46:58;;;;;;;4.40;4.05;;;0.40;99.90;;;;;;4956763;28;20203;-61
2022/03/07 00:49:25;;;;;;;4.38;4.07;;;0.50;99.90;;;;;;4964195;28;20635;-61
2022/03/07 00:51:56;;;;;;;4.75;3.65;;;0.50;99.90;;;;;;4957947;28;20199;-61
2022/03/07 00:54:24;;;;;;;4.55;3.95;;;0.40;99.90;;;;;;4961774;28;20322;-61
2022/03/07 00:56:52;;;;;;;4.78;3.67;;;0.30;99.90;;;;;;4956477;28;20310;-61
2022/03/07 00:59:19;;;;;;;3.83;3.53;;;0.30;99.90;;;;;;4961356;28;20311;-61
2022/03/07 01:01:47;;;;;;;4.70;4.25;;;0.30;99.90;;;;;;4956158;28;20314;-61
2022/03/07 01:04:15;;;;;;;4.95;4.55;;;0.30;99.90;;;;;;4960310;28;20283;-61
2022/03/07 01:06:43;;;;;;;4.07;3.78;;;0.20;99.90;;;;;;4956461;28;20227;-62
2022/03/07 01:09:17;;;;;;;4.03;3.72;;;0.10;99.90;;;;;;4969841;28;20560;-62
2022/03/07 01:11:45;;;;;;;4.32;4.03;;;0.10;99.90;;;;;;4963640;28;20231;-60
2022/03/07 01:14:13;;;;;;;4.28;3.97;;;0.10;99.90;;;;;;4958737;28;20250;-62
2022/03/07 01:16:41;;;;;;;4.65;4.25;;;0.00;99.90;;;;;;4959457;28;20634;-62
2022/03/07 01:19:09;;;;;;;5.03;4.63;;;0.00;99.90;;;;;;4955751;28;20263;-60
2022/03/07 01:21:38;;;;;;;4.47;4.07;;;0.00;99.90;;;;;;4958555;28;20266;-61
2022/03/07 01:24:06;;;;;;;4.55;3.83;;;0.10;99.90;;;;;;4962599;28;20651;-61
2022/03/07 01:26:37;;;;;;;5.00;4.60;;;0.10;99.90;;;;;;4955859;28;20625;-61
2022/03/07 01:29:05;;;;;;;4.35;3.95;;;0.00;99.90;;;;;;4957323;28;20196;-61
2022/03/07 01:31:33;;;;;;;4.25;3.95;;;0.00;99.90;;;;;;4955542;28;20231;-61
2022/03/07 01:34:01;;;;;;;4.25;3.95;;;0.00;99.90;;;;;;4956629;28;20306;-60
2022/03/07 01:36:29;;;;;;;5.03;4.70;;;0.00;99.90;;;;;;4955558;28;20211;-61
2022/03/07 01:38:57;;;;;;;4.93;4.53;;;0.10;99.90;;;;;;4958639;28;20279;-61
2022/03/07 01:41:25;;;;;;;5.43;4.93;;;0.00;99.90;;;;;;4962346;28;20301;-60
2022/03/07 01:43:54;;;;;;;4.47;4.18;;;0.10;99.90;;;;;;4960965;28;20747;-61
2022/03/07 01:46:22;;;;;;;4.97;4.57;;;0.00;99.90;;;;;;4957995;28;20246;-61
2022/03/07 01:48:50;;;;;;;5.55;4.28;;;0.20;99.90;;;;;;4960949;28;20191;-61
2022/03/07 01:51:18;;;;;;;5.55;5.10;;;0.10;99.90;;;;;;4955338;28;20237;-61
2022/03/07 01:53:46;;;;;;;5.72;5.32;;;0.10;99.90;;;;;;4960294;28;20313;-61
2022/03/07 01:56:14;;;;;;;5.53;5.00;;;0.10;99.90;;;;;;4963754;28;20216;-61
2022/03/07 01:58:42;;;;;;;5.40;4.90;;;0.10;99.90;;;;;;4959613;28;20228;-62
2022/03/07 02:01:12;;;;;;;5.50;5.10;;;0.10;99.90;;;;;;4955657;28;20333;-61
2022/03/07 02:03:40;;;;;;;5.45;5.05;;;0.10;99.90;;;;;;4954877;28;20231;-61
2022/03/07 02:06:08;;;;;;;6.55;6.05;;;0.20;99.90;;;;;;4956197;28;20235;-60
2022/03/07 02:08:36;;;;;;;6.80;6.30;;;0.20;99.90;;;;;;4964715;28;20285;-61
2022/03/07 02:11:04;;;;;;;6.60;6.07;;;0.10;99.90;;;;;;4961181;28;20614;-61
2022/03/07 02:13:35;;;;;;;6.72;6.18;;;0.20;99.90;;;;;;4961746;28;20226;-61
2022/03/07 02:16:04;;;;;;;6.97;6.40;;;0.30;99.90;;;;;;4973301;28;20238;-61
2022/03/07 02:18:34;;;;;;;6.50;6.10;;;0.30;99.90;;;;;;4959397;28;20302;-61
2022/03/07 02:21:05;;;;;;;6.80;6.20;;;0.30;99.90;;;;;;4955476;28;20234;-61
2022/03/07 02:23:36;;;;;;;7.35;6.72;;;0.20;99.90;;;;;;4958151;28;20331;-62
2022/03/07 02:26:09;;;;;;;7.65;7.05;;;0.30;99.90;;;;;;4956118;28;20211;-60
2022/03/07 02:28:39;;;;;;;7.75;7.15;;;0.30;99.90;;;;;;4962377;28;20211;-61
2022/03/07 02:31:07;;;;;;;7.53;6.93;;;0.30;99.90;;;;;;4956250;28;20349;-62
2022/03/07 02:33:35;;;;;;;7.80;7.20;;;0.30;99.90;;;;;;4956889;28;20220;-61
2022/03/07 02:36:05;;;;;;;8.70;8.00;;;0.30;99.90;;;;;;4955524;28;20302;-61
2022/03/07 02:38:34;;;;;;;8.60;7.75;;;0.20;99.90;;;;;;4965457;28;20205;-62
2022/03/07 02:41:02;;;;;;;9.00;8.30;;;0.20;99.90;;;;;;4959172;28;20328;-61
2022/03/07 02:43:30;;;;;;;9.88;9.00;;;0.30;99.90;;;;;;4959392;28;20250;-61
2022/03/07 02:45:58;;;;;;;9.80;8.77;;;0.20;99.90;;;;;;4954819;28;20298;-61
2022/03/07 02:48:26;;;;;;;9.48;8.77;;;0.40;99.90;;;;;;4955854;28;20684;-61
2022/03/07 02:50:55;;;;;;;9.27;8.57;;;0.30;99.90;;;;;;4954041;28;20241;-60
2022/03/07 02:53:24;;;;;;;10.13;9.43;;;0.20;99.90;;;;;;4953730;28;20314;-61
2022/03/07 02:55:53;;;;;;;10.73;9.82;;;0.10;99.90;;;;;;4954315;28;20231;-61
2022/03/07 02:58:21;;;;;;;11.70;10.60;;;0.10;99.90;;;;;;4957947;28;20231;-61
2022/03/07 03:00:49;;;;;;;10.80;10.00;;;0.10;99.90;;;;;;4954003;28;20239;-61
2022/03/07 03:03:17;;;;;;;12.10;11.10;;;0.00;99.90;;;;;;4960905;28;20235;-60
2022/03/07 03:05:48;;;;;;;12.48;11.50;;;0.00;99.90;;;;;;4956810;28;20221;-60
2022/03/07 03:08:17;;;;;;;11.18;10.27;;;0.10;99.90;;;;;;4962405;28;20291;-61
2022/03/07 03:10:44;;;;;;;11.88;10.98;;;0.10;99.90;;;;;;4964203;28;20238;-60
2022/03/07 03:13:14;;;;;;;12.48;11.48;;;0.00;99.90;;;;;;4954338;28;20274;-61
2022/03/07 03:15:41;;;;;;;11.30;10.50;;;0.00;99.90;;;;;;4957076;28;20235;-61
2022/03/07 03:18:09;;;;;;;12.77;11.77;;;0.10;99.90;;;;;;4953891;28;20907;-61
2022/03/07 03:20:37;;;;;;;11.55;10.65;;;0.20;99.90;;;;;;4960767;28;20286;-61
2022/03/07 03:23:05;;;;;;;14.27;13.07;;;0.20;99.90;;;;;;4953646;28;20317;-60
2022/03/07 03:25:33;;;;;;;14.82;13.30;;;0.10;99.90;;;;;;4959449;28;20278;-61
2022/03/07 03:28:01;;;;;;;15.32;13.98;;;0.20;99.90;;;;;;4959647;28;20204;-61
2022/03/07 03:30:30;;;;;;;13.93;12.93;;;0.10;99.90;;;;;;4961071;28;20217;-61
2022/03/07 03:32:58;;;;;;;12.98;11.77;;;0.00;99.90;;;;;;4968001;28;20742;-61
2022/03/07 03:35:26;;;;;;;15.00;13.60;;;0.10;99.90;;;;;;4970961;28;20774;-61
2022/03/07 03:37:54;;;;;;;13.88;12.60;;;0.10;99.90;;;;;;4970870;28;20751;-60
2022/03/07 03:40:22;;;;;;;13.85;12.85;;;0.10;99.90;;;;;;4962127;28;20214;-61
2022/03/07 03:42:50;;;;;;;15.10;13.90;;;0.20;99.90;;;;;;4966526;28;20254;-61
2022/03/07 03:45:17;;;;;;;14.15;12.90;;;0.10;99.90;;;;;;4972178;28;20308;-61
2022/03/07 03:47:47;;;;;;;16.25;14.95;;;0.10;99.90;;;;;;4967912;28;20206;-61
2022/03/07 03:50:15;;;;;;;15.88;14.57;;;0.10;99.90;;;;;;4953079;28;20210;-61
2022/03/07 03:52:44;;;;;;;15.57;14.32;;;0.10;99.90;;;;;;4953852;28;20253;-61
2022/03/07 03:55:15;;;;;;;14.48;13.07;;;0.10;99.90;;;;;;4953311;28;20286;-61
2022/03/07 03:57:44;;;;;;;14.30;12.80;;;0.20;99.90;;;;;;4962309;28;20234;-61
2022/03/07 04:00:15;;;;;;;16.77;15.40;;;0.30;99.90;;;;;;4971192;28;20266;-60
2022/03/07 04:02:43;;;;;;;15.63;14.32;;;0.30;99.90;;;;;;4952806;28;20314;-61
2022/03/07 04:05:14;;;;;;;15.43;14.13;;;0.40;99.90;;;;;;4953788;28;20237;-61
2022/03/07 04:07:42;;;;;;;15.85;14.55;;;0.50;99.90;;;;;;4956254;28;20622;-62
2022/03/07 04:10:13;;;;;;;15.98;14.40;;;0.70;99.90;;;;;;4965221;28;20233;-61
2022/03/07 04:12:41;;;;;;;14.98;13.77;;;0.60;99.90;;;;;;4957166;28;20253;-61
2022/03/07 04:15:10;;;;;;;15.68;14.38;;;0.40;99.90;;;;;;4953429;28;20214;-62
2022/03/07 04:17:39;;;;;;;16.15;14.90;;;0.60;99.90;;;;;;4957203;28;20239;-61
2022/03/07 04:20:08;;;;;;;15.80;14.55;;;0.40;99.90;;;;;;4952861;28;20250;-61
2022/03/07 04:22:38;;;;;;;16.42;15.05;;;0.30;99.90;;;;;;4954558;28;20372;-61
2022/03/07 04:25:08;;;;;;;16.35;14.95;;;0.30;99.90;;;;;;4957233;28;20310;-61
2022/03/07 04:27:36;;;;;;;18.50;16.90;;;0.40;99.90;;;;;;4953055;28;20729;-61
2022/03/07 04:30:06;;;;;;;16.60;15.20;;;0.60;99.90;;;;;;4956770;28;20586;-61
2022/03/07 04:32:36;;;;;;;16.17;14.77;;;0.90;99.90;;;;;;4968509;28;20273;-61
2022/03/07 04:35:05;;;;;;;15.00;13.90;;;0.70;99.90;;;;;;4961549;28;20588;-62
2022/03/07 04:37:34;;;;;;;16.02;14.73;;;0.60;99.90;;;;;;4953050;28;20249;-62
2022/03/07 04:40:05;;;;;;;17.20;15.70;;;0.60;99.90;;;;;;4961449;28;20731;-61
2022/03/07 04:42:34;;;;;;;17.23;15.68;;;0.60;99.90;;;;;;4960847;28;20234;-61
2022/03/07 04:45:02;;;;;;;16.42;15.13;;;0.50;99.90;;;;;;4960632;28;20611;-61
2022/03/07 04:47:30;;;;;;;16.95;15.65;;;0.60;99.90;;;;;;4956511;28;20286;-61
2022/03/07 04:49:57;;;;;;;15.75;14.40;;;0.70;99.90;;;;;;4959717;28;20710;-62
2022/03/07 04:52:25;;;;;;;15.23;14.13;;;1.00;99.90;;;;;;4957045;28;20310;-60
2022/03/07 04:54:53;;;;;;;14.93;13.73;;;1.20;99.90;;;;;;4959482;28;20647;-62
2022/03/07 04:57:22;;;;;;;17.52;15.95;;;1.00;99.90;;;;;;4956337;28;20262;-61
2022/03/07 04:59:50;;;;;;;18.40;16.85;;;0.80;99.90;;;;;;4964204;28;20629;-61
2022/03/07 05:02:18;;;;;;;16.70;15.40;;;0.60;99.90;;;;;;4962092;28;20286;-61
2022/03/07 05:04:46;;;;;;;16.20;14.90;;;0.50;99.90;;;;;;4958052;28;20314;-61
2022/03/07 05:07:14;;;;;;;18.85;17.27;;;0.30;99.90;;;;;;4956202;28;20290;-61
2022/03/07 05:09:44;;;;;;;17.38;15.77;;;0.10;99.90;;;;;;4964048;28;20618;-61
2022/03/07 05:12:13;;;;;;;16.70;15.30;;;0.00;99.90;;;;;;4971178;28;20254;-61
2022/03/07 05:14:43;;;;;;;18.15;16.65;;;0.00;99.90;;;;;;4965140;28;20196;-62
2022/03/07 05:17:11;;;;;;;16.73;15.23;;;-0.10;99.90;;;;;;4960724;28;20202;-61
2022/03/07 05:19:38;;;;;;;17.90;16.40;;;-0.20;99.90;;;;;;4958214;28;20295;-62
2022/03/07 05:22:08;;;;;;;18.08;16.58;;;-0.20;99.90;;;;;;4960702;28;20306;-61
2022/03/07 05:24:36;;;;;;;18.33;16.80;;;-0.30;99.90;;;;;;4956865;28;20735;-62
2022/03/07 05:27:05;;;;;;;17.40;15.88;;;-0.10;99.90;;;;;;4957476;28;20732;-62
2022/03/07 05:29:34;;;;;;;18.60;16.50;;;-0.10;99.90;;;;;;4960882;28;20259;-61
2022/03/07 05:32:04;;;;;;;19.67;17.98;;;-0.10;99.90;;;;;;4965415;28;20290;-62
2022/03/07 05:34:31;;;;;;;19.80;18.30;;;-0.10;99.90;;;;;;4961348;28;20727;-61
2022/03/07 05:36:59;;;;;;;17.13;15.65;;;0.10;99.90;;;;;;4956530;28;20235;-62
2022/03/07 05:39:27;;;;;;;18.50;16.90;;;0.10;99.90;;;;;;4966518;28;20245;-61
2022/03/07 05:41:55;;;;;;;17.15;15.75;;;0.00;99.90;;;;;;4966199;28;20199;-60
2022/03/07 05:44:23;;;;;;;18.75;17.20;;;-0.10;99.90;;;;;;4955998;28;20235;-61
2022/03/07 05:46:51;;;;;;;18.35;16.85;;;-0.20;99.90;;;;;;4961495;28;20199;-61
2022/03/07 05:49:20;;;;;;;18.17;16.63;;;0.00;99.90;;;;;;4960309;28;20262;-62
2022/03/07 05:51:48;;;;;;;18.95;17.33;;;-0.10;99.90;;;;;;4960197;28;20252;-61
2022/03/07 05:54:16;;;;;;;17.75;16.25;;;0.10;99.90;;;;;;4955090;28;20247;-62
2022/03/07 05:56:44;;;;;;;16.98;15.57;;;0.10;99.90;;;;;;4954523;28;20658;-60
2022/03/07 05:59:12;;;;;;;16.40;15.00;;;0.10;99.90;;;;;;4955294;28;20284;-60
2022/03/07 06:01:40;;;;;;;16.35;14.98;;;-0.10;99.90;;;;;;4962276;28;20754;-62
2022/03/07 06:04:08;;;;;;;15.95;14.65;;;-0.10;99.90;;;;;;4973079;28;20222;-61
2022/03/07 06:06:38;;;;;;;15.32;14.07;;;-0.30;99.90;;;;;;4955307;28;20270;-62
2022/03/07 06:09:06;;;;;;;15.60;14.30;;;-0.40;99.90;;;;;;4962987;28;20243;-62
2022/03/07 06:11:34;;;;;;;14.27;12.88;;;-0.40;99.90;;;;;;4956150;28;20287;-62
2022/03/07 06:14:01;;;;;;;14.68;13.43;;;-0.30;99.90;;;;;;4954513;28;20646;-62
2022/03/07 06:16:29;;;;;;;13.70;12.60;;;-0.30;99.90;;;;;;4954949;28;20302;-62
2022/03/07 06:18:57;;;;;;;12.50;11.50;;;-0.40;99.90;;;;;;4954875;28;20258;-62
2022/03/07 06:21:25;;;;;;;12.35;11.35;;;-0.40;99.90;;;;;;4954801;28;20242;-62
2022/03/07 06:23:54;;;;;;;11.70;10.85;;;-0.20;99.90;;;;;;4962274;28;20770;-61
2022/03/07 06:26:23;;;;;;;12.88;11.88;;;-0.20;99.90;;;;;;4962762;28;20281;-60
2022/03/07 06:28:51;;;;;;;12.35;11.35;;;-0.10;99.90;;;;;;4966052;28;20203;-61
2022/03/07 06:31:20;;;;;;;10.43;9.63;;;-0.10;99.90;;;;;;4967628;28;20290;-61
2022/03/07 06:33:48;;;;;;;11.90;10.80;;;-0.10;99.50;;;;;;4967000;28;20679;-61
2022/03/07 06:36:15;;;;;;;10.18;9.38;;;0.00;99.90;;;;;;4968318;28;20226;-62
2022/03/07 06:38:43;;;;;;;10.77;9.88;;;0.00;99.30;;;;;;4969396;28;20256;-61
2022/03/07 06:41:13;;;;;;;10.85;10.05;;;0.00;99.00;;;;;;4967534;28;20668;-60
2022/03/07 06:43:40;;;;;;;10.13;9.32;;;0.00;99.20;;;;;;4964801;28;20301;-61
2022/03/07 06:46:08;;;;;;;10.48;9.55;;;0.30;99.90;;;;;;4964172;28;20211;-62
2022/03/07 06:48:36;;;;;;;10.75;9.95;;;0.30;98.20;;;;;;4962746;28;20218;-61
2022/03/07 06:51:04;;;;;;;10.00;9.15;;;0.30;99.20;;;;;;4967656;28;20289;-60
2022/03/07 06:53:32;;;;;;;10.70;9.70;;;0.30;98.20;;;;;;4965845;28;20618;-61
2022/03/07 06:56:00;;;;;;;9.95;9.05;;;0.40;98.10;;;;;;4964948;28;20233;-60
2022/03/07 06:58:29;;;;;;;10.13;9.32;;;0.50;98.60;;;;;;4966765;28;20289;-61
2022/03/07 07:00:57;;;;;;;9.70;9.00;;;0.60;98.00;;;;;;4964191;28;20294;-61
2022/03/07 07:03:25;;;;;;;9.55;8.85;;;0.60;98.90;;;;;;4967086;28;20227;-61
2022/03/07 07:05:53;;;;;;;10.20;9.35;;;0.60;99.00;;;;;;4965746;28;20214;-62
2022/03/07 07:08:21;;;;;;;9.63;8.93;;;0.50;98.90;;;;;;4968887;28;20234;-62
2022/03/07 07:10:49;;;;;;;10.88;9.90;;;0.60;99.90;;;;;;4963043;28;20298;-61
2022/03/07 07:13:17;;;;;;;10.18;9.43;;;0.60;99.90;;;;;;4959019;28;20314;-61
2022/03/07 07:15:54;;;;;;;9.68;8.75;;;0.70;99.50;;;;;;4953861;28;20286;-62
2022/03/07 07:18:22;;;;;;;9.48;8.77;;;0.80;98.70;;;;;;4962184;28;20284;-61
2022/03/07 07:20:51;;;;;;;9.40;8.70;;;0.80;98.20;;;;;;4957639;28;20234;-62
2022/03/07 07:23:19;;;;;;;9.20;8.60;;;0.80;98.40;;;;;;4956102;28;20243;-62
2022/03/07 07:25:47;;;;;;;9.48;8.68;;;1.00;98.40;;;;;;4957380;28;20309;-62
2022/03/07 07:28:15;;;;;;;9.10;8.40;;;1.10;97.70;;;;;;4960764;28;20218;-61
2022/03/07 07:30:45;;;;;;;8.82;8.15;;;1.30;97.20;;;;;;4953410;28;20306;-61
2022/03/07 07:33:14;;;;;;;8.95;8.25;;;1.40;96.70;;;;;;4956014;28;20361;-61
2022/03/07 07:35:42;;;;;;;8.90;8.20;;;1.40;96.30;;;;;;4953808;28;20203;-63
2022/03/07 07:38:10;;;;;;;8.38;7.78;;;1.50;96.30;;;;;;4960367;28;20764;-63
2022/03/07 07:40:38;;;;;;;8.85;8.13;;;1.70;96.50;;;;;;4963315;28;20239;-63
2022/03/07 07:43:06;;;;;;;9.13;8.52;;;1.70;95.60;;;;;;4965230;28;20330;-63
2022/03/07 07:45:34;;;;;;;8.65;7.97;;;1.80;95.60;;;;;;4957968;28;20306;-62
2022/03/07 07:48:02;;;;;;;7.80;7.28;;;1.70;95.00;;;;;;4962717;28;20204;-62
2022/03/07 07:50:31;;;;;;;10.15;9.25;;;1.60;95.10;;;;;;4967968;28;20610;-62
2022/03/07 07:52:59;;;;;;;9.10;8.23;;;1.50;96.20;;;;;;4963886;28;20301;-62
2022/03/07 07:55:27;;;;;;;9.50;8.75;;;1.60;96.30;;;;;;4966171;28;20302;-62
2022/03/07 07:57:55;;;;;;;8.85;8.25;;;1.70;96.30;;;;;;4962755;28;20294;-62
2022/03/07 08:00:23;;;;;;;9.85;9.15;;;1.80;96.00;;;;;;4957495;28;20293;-62
2022/03/07 08:02:51;;;;;;;9.40;8.70;;;1.80;95.60;;;;;;4971245;28;20309;-62
2022/03/07 08:05:20;;;;;;;10.15;9.35;;;1.90;95.70;;;;;;4971787;28;20222;-63
2022/03/07 08:07:49;;;;;;;9.27;8.68;;;2.10;96.00;;;;;;4972335;28;20737;-62
2022/03/07 08:10:18;;;;;;;9.30;8.65;;;2.20;95.60;;;;;;4960518;28;20641;-62
2022/03/07 08:12:47;;;;;;;9.35;8.63;;;2.30;95.20;;;;;;4958036;28;20282;-63
2022/03/07 08:15:19;;;;;;;9.32;8.57;;;2.40;94.40;;;;;;4953565;28;20626;-63
2022/03/07 08:17:49;;;;;;;9.45;8.75;;;2.50;94.10;;;;;;4953228;28;20258;-62
2022/03/07 08:20:19;;;;;;;9.05;8.32;;;2.60;94.20;;;;;;4961508;28;20290;-62
2022/03/07 08:22:49;;;;;;;8.27;7.68;;;2.70;93.70;;;;;;4962254;28;20273;-62
2022/03/07 08:25:17;;;;;;;9.40;8.60;;;2.70;93.20;;;;;;4969286;28;20246;-62
2022/03/07 08:27:45;;;;;;;8.70;8.10;;;2.70;93.30;;;;;;4975405;28;20629;-63
2022/03/07 08:30:15;;;;;;;9.07;8.40;;;2.80;93.10;;;;;;4975457;28;20234;-62
2022/03/07 08:32:43;;;;;;;8.18;7.68;;;2.90;92.70;;;;;;4975177;28;20317;-63
2022/03/07 08:35:12;;;;;;;8.65;8.05;;;2.90;92.90;;;;;;4975458;28;20357;-62
2022/03/07 08:37:42;;;;;;;8.20;7.60;;;3.00;92.80;;;;;;4975228;28;20660;-62
2022/03/07 08:40:11;;;;;;;8.00;7.40;;;3.10;92.90;;;;;;4971446;28;20207;-63
2022/03/07 08:42:40;;;;;;;8.18;7.57;;;3.30;92.40;;;;;;4958049;28;20322;-62
2022/03/07 08:45:09;;;;;;;8.05;7.25;;;3.30;92.20;;;;;;4956739;28;20229;-63
2022/03/07 08:47:38;;;;;;;7.70;7.20;;;3.40;92.30;;;;;;4956753;28;20302;-63
2022/03/07 08:50:09;;;;;;;7.80;7.20;;;3.60;92.10;;;;;;4956659;28;20284;-63
2022/03/07 08:52:38;;;;;;;8.35;7.65;;;3.80;91.90;;;;;;4956089;28;20322;-62
2022/03/07 08:55:07;;;;;;;7.45;6.95;;;3.80;91.00;;;;;;4956533;28;20282;-63
2022/03/07 08:57:37;;;;;;;11.35;7.55;;;3.70;91.20;;;;;;4956539;28;20642;-63
2022/03/07 09:00:08;;;;;;;7.95;7.32;;;3.80;91.20;;;;;;4956911;28;20668;-62
2022/03/07 09:02:46;;;;;;;8.13;7.53;;;3.90;91.00;;;;;;4970967;28;20357;-63
2022/03/07 09:05:15;;;;;;;7.85;7.35;;;4.30;90.90;;;;;;4959039;28;20229;-62
2022/03/07 09:07:43;;;;;;;8.50;7.70;;;4.40;90.60;;;;;;4967037;28;20215;-62
2022/03/07 09:10:11;;;;;;;8.10;7.50;;;4.50;91.00;;;;;;4957720;28;20198;-63
2022/03/07 09:12:40;;;;;;;7.15;6.65;;;4.60;90.00;;;;;;4956531;28;20266;-62
2022/03/07 09:15:09;;;;;;;7.85;7.15;;;4.70;90.20;;;;;;4955814;28;20202;-62
2022/03/07 09:17:36;;;;;;;7.97;7.28;;;4.60;89.50;;;;;;4954482;28;20736;-62
2022/03/07 09:20:06;;;;;;;7.47;6.97;;;4.50;89.90;;;;;;4955614;28;20224;-62
2022/03/07 09:22:35;;;;;;;8.32;7.57;;;4.70;90.10;;;;;;4957398;28;20239;-61
2022/03/07 09:25:05;;;;;;;8.68;7.97;;;4.90;90.20;;;;;;4960367;28;20305;-62
2022/03/07 09:27:35;;;;;;;8.90;8.00;;;5.10;89.90;;;;;;4953023;28;20566;-62
2022/03/07 09:30:04;;;;;;;9.18;8.45;;;5.20;88.70;;;;;;4959346;28;20207;-62
2022/03/07 09:32:32;;;;;;;8.00;7.40;;;5.30;87.40;;;;;;4955480;28;20231;-62
2022/03/07 09:35:00;;;;;;;6.90;6.40;;;5.60;88.80;;;;;;4965459;28;20210;-62
2022/03/07 09:37:28;;;;;;;8.00;6.57;;;5.80;85.70;;;;;;4957350;28;20298;-62
2022/03/07 09:39:56;;;;;;;7.28;6.70;;;5.60;85.00;;;;;;4962800;28;20234;-62
2022/03/07 09:42:24;;;;;;;7.40;6.78;;;5.40;86.30;;;;;;4955552;28;20696;-63
2022/03/07 09:44:52;;;;;;;8.13;7.10;;;5.50;86.00;;;;;;4956822;28;20294;-62
2022/03/07 09:47:22;;;;;;;7.28;6.60;;;5.80;85.90;;;;;;4960393;28;20307;-63
2022/03/07 09:49:51;;;;;;;7.25;6.65;;;6.00;85.30;;;;;;4956500;28;20347;-62
2022/03/07 09:52:19;;;;;;;7.28;6.65;;;6.30;85.30;;;;;;4949839;28;20241;-63
2022/03/07 09:54:47;;;;;;;7.25;6.70;;;6.70;84.10;;;;;;4954317;28;20375;-63
2022/03/07 09:57:15;;;;;;;7.72;7.03;;;7.00;83.90;;;;;;4957791;28;20286;-62
2022/03/07 09:59:43;;;;;;;8.00;7.47;;;6.90;83.40;;;;;;4951635;28;20235;-62
2022/03/07 10:02:14;;;;;;;7.18;6.47;;;6.70;82.90;;;;;;4962803;28;20286;-62
2022/03/07 10:04:46;;;;;;;8.32;7.63;;;6.90;83.90;;;;;;4953096;28;20747;-63
2022/03/07 10:07:15;;;;;;;9.50;7.78;;;7.10;83.50;;;;;;4957937;28;20281;-62
2022/03/07 10:09:44;;;;;;;7.30;6.70;;;7.00;83.20;;;;;;4956340;28;20626;-62
2022/03/07 10:12:12;;;;;;;6.35;5.85;;;6.90;81.80;;;;;;4957935;28;20310;-62
2022/03/07 10:14:44;;;;;;;6.40;5.90;;;7.00;82.80;;;;;;4951231;28;20208;-62
2022/03/07 10:17:20;;;;;;;6.47;5.68;;;7.10;80.70;;;;;;4955465;28;20720;-62
2022/03/07 10:19:52;;;;;;;6.88;6.25;;;7.40;81.60;;;;;;4955426;28;20262;-62
2022/03/07 10:22:22;;;;;;;6.50;6.00;;;7.70;80.40;;;;;;4963392;28;20754;-62
2022/03/07 10:24:59;;;;;;;7.97;6.60;;;7.40;79.30;;;;;;4964270;28;20235;-61
2022/03/07 10:27:28;;;;;;;7.40;6.80;;;7.30;81.40;;;;;;4960196;28;20230;-62
2022/03/07 10:29:56;;;;;;;5.95;5.55;;;7.60;80.30;;;;;;4961738;28;20211;-61
2022/03/07 10:32:24;;;;;;;6.55;5.30;;;7.60;78.30;;;;;;4961932;28;20313;-62
2022/03/07 10:34:54;;;;;;;5.78;5.38;;;7.60;78.50;;;;;;4964291;28;20205;-61
2022/03/07 10:37:32;;;;;;;5.93;5.45;;;7.70;78.60;;;;;;4977509;28;20648;-61
2022/03/07 10:40:00;;;;;;;5.65;5.20;;;7.80;78.80;;;;;;4957796;28;20655;-61
2022/03/07 10:42:28;;;;;;;6.40;5.85;;;8.10;77.60;;;;;;4961710;28;20289;-61
2022/03/07 10:45:03;;;;;;;8.30;6.70;;;8.30;77.50;;;;;;4964787;28;20212;-62
2022/03/07 10:47:31;;;;;;;6.35;5.50;;;8.30;76.50;;;;;;4955502;28;20317;-61
2022/03/07 10:50:02;;;;;;;7.30;6.10;;;8.40;75.70;;;;;;4951448;28;20286;-62
2022/03/07 10:52:36;;;;;;;6.70;6.20;;;8.20;77.50;;;;;;4960283;28;20222;-62
2022/03/07 10:55:06;;;;;;;5.90;5.50;;;8.20;77.90;;;;;;4951977;28;20294;-61
2022/03/07 10:57:36;;;;;;;6.45;5.95;;;8.10;76.10;;;;;;4957129;28;20286;-62
2022/03/07 11:00:11;;;;;;;6.10;5.60;;;8.10;76.30;;;;;;4958810;28;20245;-63
2022/03/07 11:02:40;;;;;;;5.95;5.45;;;8.00;75.70;;;;;;4960098;28;20313;-62
2022/03/07 11:05:11;;;;;;;5.43;5.03;;;8.40;76.30;;;;;;4955857;28;20310;-63
2022/03/07 11:07:40;;;;;;;6.10;5.70;;;8.70;75.50;;;;;;4952314;28;20262;-62
2022/03/07 11:10:10;;;;;;;7.00;6.18;;;8.90;75.00;;;;;;4964067;28;20621;-62
2022/03/07 11:12:39;;;;;;;5.85;5.40;;;8.90;74.10;;;;;;4953898;28;20242;-62
2022/03/07 11:15:09;;;;;;;6.13;5.68;;;8.70;74.90;;;;;;4953897;28;20708;-62
2022/03/07 11:17:39;;;;;;;6.40;5.90;;;8.60;73.90;;;;;;4955154;28;20230;-61
2022/03/07 11:20:08;;;;;;;5.95;5.55;;;8.70;75.00;;;;;;4958666;28;20203;-63
2022/03/07 11:22:38;;;;;;;7.30;6.40;;;8.70;74.60;;;;;;4954185;28;20267;-62
2022/03/07 11:25:08;;;;;;;6.35;5.82;;;9.10;74.90;;;;;;4953248;28;20298;-62
2022/03/07 11:27:36;;;;;;;5.60;5.20;;;9.30;73.20;;;;;;4949548;28;20258;-63
2022/03/07 11:30:17;;;;;;;7.05;5.20;;;9.10;72.80;;;;;;4954717;28;20361;-63
2022/03/07 11:32:46;;;;;;;6.80;6.20;;;9.10;73.50;;;;;;4953643;28;20322;-63
2022/03/07 11:35:15;;;;;;;6.30;5.90;;;9.20;73.20;;;;;;4955369;28;20199;-62
2022/03/07 11:37:44;;;;;;;6.05;5.65;;;9.50;73.40;;;;;;4953760;28;20979;-62
2022/03/07 11:40:19;;;;;;;5.65;5.25;;;9.70;72.40;;;;;;4958107;28;20298;-62
2022/03/07 11:42:47;;;;;;;6.05;5.55;;;9.80;71.90;;;;;;4955368;28;20316;-62
2022/03/07 11:45:18;;;;;;;7.00;6.18;;;9.70;71.90;;;;;;4959980;28;20295;-62
2022/03/07 11:47:48;;;;;;;6.65;6.05;;;9.90;72.30;;;;;;4953049;28;20223;-62
2022/03/07 11:50:18;;;;;;;6.25;5.85;;;10.00;72.50;;;;;;4954674;28;20195;-62
2022/03/07 11:52:48;;;;;;;5.50;5.10;;;10.20;71.10;;;;;;4958310;28;20231;-62
2022/03/07 11:55:19;;;;;;;7.78;5.97;;;10.10;71.90;;;;;;4954250;28;20988;-62
2022/03/07 11:57:50;;;;;;;6.00;5.50;;;10.20;71.50;;;;;;4962155;28;20577;-63
2022/03/07 12:00:21;;;;;;;5.63;5.22;;;10.50;72.00;;;;;;4956459;28;20298;-62
2022/03/07 12:02:51;;;;;;;6.03;5.53;;;10.30;70.60;;;;;;4965482;28;20321;-62
2022/03/07 12:05:24;;;;;;;7.45;6.82;;;10.00;71.20;;;;;;4960032;28;20265;-62
2022/03/07 12:08:06;;;;;;;6.43;6.03;;;9.30;71.70;;;;;;4962697;28;20739;-62
2022/03/07 12:10:34;;;;;;;6.75;6.25;;;9.20;72.00;;;;;;4958792;28;20202;-63
2022/03/07 12:13:06;;;;;;;7.28;6.75;;;9.30;72.10;;;;;;4962585;28;20234;-62
2022/03/07 12:15:44;;;;;;;7.95;6.13;;;9.30;71.70;;;;;;4969038;28;20230;-62
2022/03/07 12:18:12;;;;;;;5.90;5.50;;;9.50;72.30;;;;;;4962455;28;20227;-63
2022/03/07 12:20:49;;;;;;;6.38;5.80;;;9.80;73.00;;;;;;4961432;28;20203;-62
2022/03/07 12:23:20;;;;;;;8.07;7.25;;;9.70;71.30;;;;;;4965871;28;20296;-62
2022/03/07 12:25:48;;;;;;;6.40;5.82;;;9.50;71.20;;;;;;4957645;28;20940;-62
2022/03/07 12:28:16;;;;;;;7.38;6.05;;;9.00;72.00;;;;;;4960451;28;20269;-62
2022/03/07 12:30:44;;;;;;;6.40;5.90;;;8.90;73.10;;;;;;4959115;28;20314;-62
2022/03/07 12:33:12;;;;;;;7.28;6.60;;;9.40;72.30;;;;;;4963768;28;20226;-64
2022/03/07 12:35:40;;;;;;;6.47;5.97;;;9.90;71.70;;;;;;4961302;28;20968;-62
2022/03/07 12:38:09;;;;;;;7.20;6.45;;;10.60;70.60;;;;;;4965003;28;20203;-62
2022/03/07 12:40:39;;;;;;;7.88;7.18;;;10.70;70.30;;;;;;4959473;28;21961;-62
2022/03/07 12:43:08;;;;;;;7.55;6.80;;;10.20;70.70;;;;;;4965920;28;20264;-63
2022/03/07 12:45:46;;;;;;;7.13;6.53;;;10.20;71.80;;;;;;4962087;28;20954;-62
2022/03/07 12:48:14;;;;;;;6.30;5.90;;;10.10;70.10;;;;;;4960448;28;20305;-62
2022/03/07 12:50:42;;;;;;;7.80;7.10;;;10.30;70.50;;;;;;4960188;28;20211;-62
2022/03/07 12:53:13;;;;;;;7.65;7.05;;;10.10;70.60;;;;;;4961797;28;20833;-62
2022/03/07 12:55:43;;;;;;;8.30;7.47;;;10.30;71.50;;;;;;4970484;28;20311;-62
2022/03/07 12:58:17;;;;;;;7.55;6.95;;;10.50;69.80;;;;;;4958262;28;20289;-62
2022/03/07 13:00:46;;;;;;;7.45;6.80;;;10.80;69.50;;;;;;4960662;28;20207;-62